Terminal Aerodrome Forecast
Issued by NWS

Home | Current Version | Previous Version | Text Only | Print | Product List | Glossary On
Versions: 1 2 3 4 5 6 7 8 9 10 11 12
000
FTUS42 KMLB 232326
TAFFPR
TAF
KFPR 232326Z 2400/2424 00000KT P6SM BKN200
     FM241400 22005KT P6SM SCT025 BKN200
     FM241800 12008KT P6SM SCT040 BKN250=

USA.gov is the U.S. government's official web portal to all federal, state and local government web resources and services.